sensor_id;sensor_type;location;lat;lon;timestamp;temperature;humidity
68924;DHT22;55961;52.156;20.942;2023-07-31T00:00:37;20.10;68.30
68924;DHT22;55961;52.156;20.942;2023-07-31T00:03:23;20.10;68.30
68924;DHT22;55961;52.156;20.942;2023-07-31T00:05:49;20.00;68.10
68924;DHT22;55961;52.156;20.942;2023-07-31T00:08:15;20.00;68.10
68924;DHT22;55961;52.156;20.942;2023-07-31T00:10:40;20.00;68.20
68924;DHT22;55961;52.156;20.942;2023-07-31T00:13:07;19.90;68.30
68924;DHT22;55961;52.156;20.942;2023-07-31T00:15:32;19.90;68.10
68924;DHT22;55961;52.156;20.942;2023-07-31T00:17:58;19.90;68.30
68924;DHT22;55961;52.156;20.942;2023-07-31T00:20:24;19.80;68.30
68924;DHT22;55961;52.156;20.942;2023-07-31T00:22:50;19.80;68.40
68924;DHT22;55961;52.156;20.942;2023-07-31T00:25:16;19.70;68.40
68924;DHT22;55961;52.156;20.942;2023-07-31T00:27:42;19.70;68.60
68924;DHT22;55961;52.156;20.942;2023-07-31T00:30:10;19.70;68.70
68924;DHT22;55961;52.156;20.942;2023-07-31T00:32:36;19.60;68.80
68924;DHT22;55961;52.156;20.942;2023-07-31T00:35:02;19.60;69.00
68924;DHT22;55961;52.156;20.942;2023-07-31T00:37:29;19.50;69.20
68924;DHT22;55961;52.156;20.942;2023-07-31T00:39:55;19.50;69.30
68924;DHT22;55961;52.156;20.942;2023-07-31T00:42:24;19.40;69.30
68924;DHT22;55961;52.156;20.942;2023-07-31T00:44:50;19.40;69.50
68924;DHT22;55961;52.156;20.942;2023-07-31T00:47:16;19.40;69.70
68924;DHT22;55961;52.156;20.942;2023-07-31T00:49:42;19.40;69.70
68924;DHT22;55961;52.156;20.942;2023-07-31T00:52:09;19.30;69.80
68924;DHT22;55961;52.156;20.942;2023-07-31T00:54:35;19.30;69.90
68924;DHT22;55961;52.156;20.942;2023-07-31T00:57:02;19.30;70.20
68924;DHT22;55961;52.156;20.942;2023-07-31T00:59:28;19.20;70.20
68924;DHT22;55961;52.156;20.942;2023-07-31T01:01:54;19.20;70.50
68924;DHT22;55961;52.156;20.942;2023-07-31T01:04:20;19.20;70.50
68924;DHT22;55961;52.156;20.942;2023-07-31T01:07:05;19.20;70.60
68924;DHT22;55961;52.156;20.942;2023-07-31T01:12:17;19.10;70.90
68924;DHT22;55961;52.156;20.942;2023-07-31T01:15:07;19.10;71.10
68924;DHT22;55961;52.156;20.942;2023-07-31T01:17:39;19.00;71.20
68924;DHT22;55961;52.156;20.942;2023-07-31T01:20:32;19.00;71.20
68924;DHT22;55961;52.156;20.942;2023-07-31T01:26:11;19.00;71.60
68924;DHT22;55961;52.156;20.942;2023-07-31T01:31:24;18.90;72.00
68924;DHT22;55961;52.156;20.942;2023-07-31T01:33:53;18.90;72.00
68924;DHT22;55961;52.156;20.942;2023-07-31T01:36:20;18.80;72.20
68924;DHT22;55961;52.156;20.942;2023-07-31T01:38:46;18.80;72.40
68924;DHT22;55961;52.156;20.942;2023-07-31T01:41:12;18.80;72.40
68924;DHT22;55961;52.156;20.942;2023-07-31T01:43:39;18.80;72.50
68924;DHT22;55961;52.156;20.942;2023-07-31T01:46:05;18.70;72.80
68924;DHT22;55961;52.156;20.942;2023-07-31T01:48:31;18.70;72.90
68924;DHT22;55961;52.156;20.942;2023-07-31T01:51:01;18.70;73.00
68924;DHT22;55961;52.156;20.942;2023-07-31T01:53:28;18.70;73.20
68924;DHT22;55961;52.156;20.942;2023-07-31T01:55:54;18.60;73.30
68924;DHT22;55961;52.156;20.942;2023-07-31T01:58:20;18.60;73.50
68924;DHT22;55961;52.156;20.942;2023-07-31T02:00:46;18.60;73.90
68924;DHT22;55961;52.156;20.942;2023-07-31T02:03:12;18.50;73.90
68924;DHT22;55961;52.156;20.942;2023-07-31T02:05:44;18.50;74.10
68924;DHT22;55961;52.156;20.942;2023-07-31T02:08:11;18.50;74.20
68924;DHT22;55961;52.156;20.942;2023-07-31T02:10:36;18.50;74.20
68924;DHT22;55961;52.156;20.942;2023-07-31T02:13:02;18.50;74.20
68924;DHT22;55961;52.156;20.942;2023-07-31T02:15:32;18.50;74.40
68924;DHT22;55961;52.156;20.942;2023-07-31T02:17:58;18.50;74.40
68924;DHT22;55961;52.156;20.942;2023-07-31T02:20:24;18.50;74.60
68924;DHT22;55961;52.156;20.942;2023-07-31T02:22:51;18.40;74.60
68924;DHT22;55961;52.156;20.942;2023-07-31T02:25:18;18.40;74.80
68924;DHT22;55961;52.156;20.942;2023-07-31T02:27:44;18.40;74.80
68924;DHT22;55961;52.156;20.942;2023-07-31T02:30:11;18.40;74.80
68924;DHT22;55961;52.156;20.942;2023-07-31T02:32:37;18.40;75.10
68924;DHT22;55961;52.156;20.942;2023-07-31T02:35:03;18.40;75.00
68924;DHT22;55961;52.156;20.942;2023-07-31T02:37:29;18.30;75.30
68924;DHT22;55961;52.156;20.942;2023-07-31T02:39:55;18.30;75.40
68924;DHT22;55961;52.156;20.942;2023-07-31T02:42:21;18.30;75.50
68924;DHT22;55961;52.156;20.942;2023-07-31T02:44:47;18.30;75.50
68924;DHT22;55961;52.156;20.942;2023-07-31T02:47:13;18.30;75.80
68924;DHT22;55961;52.156;20.942;2023-07-31T02:49:38;18.20;75.80
68924;DHT22;55961;52.156;20.942;2023-07-31T02:52:05;18.30;75.80
68924;DHT22;55961;52.156;20.942;2023-07-31T02:54:31;18.20;75.90
68924;DHT22;55961;52.156;20.942;2023-07-31T02:56:57;18.20;76.10
68924;DHT22;55961;52.156;20.942;2023-07-31T02:59:22;18.20;75.90
68924;DHT22;55961;52.156;20.942;2023-07-31T03:01:48;18.20;76.00
68924;DHT22;55961;52.156;20.942;2023-07-31T03:04:14;18.20;76.10
68924;DHT22;55961;52.156;20.942;2023-07-31T03:06:40;18.20;75.90
68924;DHT22;55961;52.156;20.942;2023-07-31T03:09:06;18.20;76.00
68924;DHT22;55961;52.156;20.942;2023-07-31T03:11:32;18.20;75.90
68924;DHT22;55961;52.156;20.942;2023-07-31T03:13:58;18.20;75.80
68924;DHT22;55961;52.156;20.942;2023-07-31T03:16:24;18.20;75.80
68924;DHT22;55961;52.156;20.942;2023-07-31T03:18:50;18.20;75.80
68924;DHT22;55961;52.156;20.942;2023-07-31T03:21:16;18.20;75.70
68924;DHT22;55961;52.156;20.942;2023-07-31T03:23:41;18.20;75.70
68924;DHT22;55961;52.156;20.942;2023-07-31T03:26:09;18.20;75.70
68924;DHT22;55961;52.156;20.942;2023-07-31T03:28:35;18.20;75.60
68924;DHT22;55961;52.156;20.942;2023-07-31T03:31:01;18.30;75.60
68924;DHT22;55961;52.156;20.942;2023-07-31T03:33:27;18.30;75.50
68924;DHT22;55961;52.156;20.942;2023-07-31T03:35:53;18.30;75.60
68924;DHT22;55961;52.156;20.942;2023-07-31T03:38:19;18.30;75.50
68924;DHT22;55961;52.156;20.942;2023-07-31T03:40:45;18.30;75.60
68924;DHT22;55961;52.156;20.942;2023-07-31T03:43:12;18.30;75.60
68924;DHT22;55961;52.156;20.942;2023-07-31T03:45:38;18.30;75.70
68924;DHT22;55961;52.156;20.942;2023-07-31T03:48:05;18.30;75.60
68924;DHT22;55961;52.156;20.942;2023-07-31T03:50:31;18.30;75.50
68924;DHT22;55961;52.156;20.942;2023-07-31T03:52:57;18.30;75.70
68924;DHT22;55961;52.156;20.942;2023-07-31T03:55:23;18.30;75.60
68924;DHT22;55961;52.156;20.942;2023-07-31T03:57:49;18.30;75.60
68924;DHT22;55961;52.156;20.942;2023-07-31T04:00:15;18.30;75.60
68924;DHT22;55961;52.156;20.942;2023-07-31T04:02:41;18.30;75.40
68924;DHT22;55961;52.156;20.942;2023-07-31T04:05:07;18.30;75.50
68924;DHT22;55961;52.156;20.942;2023-07-31T04:07:33;18.40;75.50
68924;DHT22;55961;52.156;20.942;2023-07-31T04:10:00;18.40;75.40
68924;DHT22;55961;52.156;20.942;2023-07-31T04:12:26;18.40;75.30
68924;DHT22;55961;52.156;20.942;2023-07-31T04:14:52;18.40;75.50
68924;DHT22;55961;52.156;20.942;2023-07-31T04:17:18;18.40;75.20
68924;DHT22;55961;52.156;20.942;2023-07-31T04:19:44;18.40;75.20
68924;DHT22;55961;52.156;20.942;2023-07-31T04:22:10;18.40;75.20
68924;DHT22;55961;52.156;20.942;2023-07-31T04:24:36;18.40;75.00
68924;DHT22;55961;52.156;20.942;2023-07-31T04:27:02;18.40;74.80
68924;DHT22;55961;52.156;20.942;2023-07-31T04:29:28;18.40;74.70
68924;DHT22;55961;52.156;20.942;2023-07-31T04:31:53;18.40;74.60
68924;DHT22;55961;52.156;20.942;2023-07-31T04:34:19;18.40;74.50
68924;DHT22;55961;52.156;20.942;2023-07-31T04:36:45;18.40;74.70
68924;DHT22;55961;52.156;20.942;2023-07-31T04:39:11;18.40;74.60
68924;DHT22;55961;52.156;20.942;2023-07-31T04:41:37;18.40;74.50
68924;DHT22;55961;52.156;20.942;2023-07-31T04:44:03;18.50;74.20
68924;DHT22;55961;52.156;20.942;2023-07-31T04:46:29;18.40;74.20
68924;DHT22;55961;52.156;20.942;2023-07-31T04:48:56;18.50;74.00
68924;DHT22;55961;52.156;20.942;2023-07-31T04:51:22;18.40;73.80
68924;DHT22;55961;52.156;20.942;2023-07-31T04:53:49;18.50;74.00
68924;DHT22;55961;52.156;20.942;2023-07-31T04:56:16;18.50;73.80
68924;DHT22;55961;52.156;20.942;2023-07-31T04:58:42;18.50;73.70
68924;DHT22;55961;52.156;20.942;2023-07-31T05:01:08;18.50;73.70
68924;DHT22;55961;52.156;20.942;2023-07-31T05:03:34;18.50;73.50
68924;DHT22;55961;52.156;20.942;2023-07-31T05:05:59;18.50;73.70
68924;DHT22;55961;52.156;20.942;2023-07-31T05:08:26;18.50;73.40
68924;DHT22;55961;52.156;20.942;2023-07-31T05:10:51;18.60;73.50
68924;DHT22;55961;52.156;20.942;2023-07-31T05:13:18;18.60;73.60
68924;DHT22;55961;52.156;20.942;2023-07-31T05:15:43;18.60;73.80
68924;DHT22;55961;52.156;20.942;2023-07-31T05:18:09;18.60;73.70
68924;DHT22;55961;52.156;20.942;2023-07-31T05:20:35;18.70;73.90
68924;DHT22;55961;52.156;20.942;2023-07-31T05:23:01;18.70;74.00
68924;DHT22;55961;52.156;20.942;2023-07-31T05:25:27;18.70;74.00
68924;DHT22;55961;52.156;20.942;2023-07-31T05:27:53;18.70;73.60
68924;DHT22;55961;52.156;20.942;2023-07-31T05:30:19;18.80;73.20
68924;DHT22;55961;52.156;20.942;2023-07-31T05:32:45;18.80;73.00
68924;DHT22;55961;52.156;20.942;2023-07-31T05:35:11;18.90;72.80
68924;DHT22;55961;52.156;20.942;2023-07-31T05:37:37;18.90;72.40
68924;DHT22;55961;52.156;20.942;2023-07-31T05:40:03;18.90;72.40
68924;DHT22;55961;52.156;20.942;2023-07-31T05:42:29;18.90;72.30
68924;DHT22;55961;52.156;20.942;2023-07-31T05:44:55;18.90;72.20
68924;DHT22;55961;52.156;20.942;2023-07-31T05:47:21;18.90;72.00
68924;DHT22;55961;52.156;20.942;2023-07-31T05:49:48;18.90;72.20
68924;DHT22;55961;52.156;20.942;2023-07-31T05:52:15;18.90;72.00
68924;DHT22;55961;52.156;20.942;2023-07-31T05:54:42;18.90;72.20
68924;DHT22;55961;52.156;20.942;2023-07-31T05:57:08;18.90;72.30
68924;DHT22;55961;52.156;20.942;2023-07-31T05:59:33;18.90;72.20
68924;DHT22;55961;52.156;20.942;2023-07-31T06:01:59;18.90;72.40
68924;DHT22;55961;52.156;20.942;2023-07-31T06:04:25;18.90;72.20
68924;DHT22;55961;52.156;20.942;2023-07-31T06:06:52;18.90;72.20
68924;DHT22;55961;52.156;20.942;2023-07-31T06:09:17;18.90;72.70
68924;DHT22;55961;52.156;20.942;2023-07-31T06:11:43;18.90;73.00
68924;DHT22;55961;52.156;20.942;2023-07-31T06:14:09;18.90;73.00
68924;DHT22;55961;52.156;20.942;2023-07-31T06:16:35;18.90;73.00
68924;DHT22;55961;52.156;20.942;2023-07-31T06:19:01;19.00;73.30
68924;DHT22;55961;52.156;20.942;2023-07-31T06:21:27;19.00;73.80
68924;DHT22;55961;52.156;20.942;2023-07-31T06:23:53;19.00;73.80
68924;DHT22;55961;52.156;20.942;2023-07-31T06:26:19;19.00;73.20
68924;DHT22;55961;52.156;20.942;2023-07-31T06:28:45;19.00;73.50
68924;DHT22;55961;52.156;20.942;2023-07-31T06:31:12;19.00;73.90
68924;DHT22;55961;52.156;20.942;2023-07-31T06:33:38;18.90;73.90
68924;DHT22;55961;52.156;20.942;2023-07-31T06:36:04;19.00;73.30
68924;DHT22;55961;52.156;20.942;2023-07-31T06:38:30;19.00;73.00
68924;DHT22;55961;52.156;20.942;2023-07-31T06:40:56;19.00;73.20
68924;DHT22;55961;52.156;20.942;2023-07-31T06:43:22;18.90;72.80
68924;DHT22;55961;52.156;20.942;2023-07-31T06:45:48;18.90;72.70
68924;DHT22;55961;52.156;20.942;2023-07-31T06:48:16;18.90;72.80
68924;DHT22;55961;52.156;20.942;2023-07-31T06:50:42;19.00;72.60
68924;DHT22;55961;52.156;20.942;2023-07-31T06:53:08;19.00;71.90
68924;DHT22;55961;52.156;20.942;2023-07-31T06:55:34;19.00;71.90
68924;DHT22;55961;52.156;20.942;2023-07-31T06:58:00;19.00;72.20
68924;DHT22;55961;52.156;20.942;2023-07-31T07:00:26;19.00;72.20
68924;DHT22;55961;52.156;20.942;2023-07-31T07:02:52;19.00;72.10
68924;DHT22;55961;52.156;20.942;2023-07-31T07:05:18;19.00;72.10
68924;DHT22;55961;52.156;20.942;2023-07-31T07:07:45;19.00;72.20
68924;DHT22;55961;52.156;20.942;2023-07-31T07:10:11;19.00;72.20
68924;DHT22;55961;52.156;20.942;2023-07-31T07:12:37;19.10;71.60
68924;DHT22;55961;52.156;20.942;2023-07-31T07:15:03;19.10;71.90
68924;DHT22;55961;52.156;20.942;2023-07-31T07:17:30;19.10;71.80
68924;DHT22;55961;52.156;20.942;2023-07-31T07:20:00;19.20;71.70
68924;DHT22;55961;52.156;20.942;2023-07-31T07:22:26;19.30;71.50
68924;DHT22;55961;52.156;20.942;2023-07-31T07:24:53;19.40;71.20
68924;DHT22;55961;52.156;20.942;2023-07-31T07:27:18;19.50;70.20
68924;DHT22;55961;52.156;20.942;2023-07-31T07:29:45;19.60;69.80
68924;DHT22;55961;52.156;20.942;2023-07-31T07:32:12;19.80;69.80
68924;DHT22;55961;52.156;20.942;2023-07-31T07:34:38;19.90;69.20
68924;DHT22;55961;52.156;20.942;2023-07-31T07:37:04;20.00;68.90
68924;DHT22;55961;52.156;20.942;2023-07-31T07:39:30;20.10;68.00
68924;DHT22;55961;52.156;20.942;2023-07-31T07:41:56;20.30;68.30
68924;DHT22;55961;52.156;20.942;2023-07-31T07:44:22;20.40;67.50
68924;DHT22;55961;52.156;20.942;2023-07-31T07:46:47;20.50;66.70
68924;DHT22;55961;52.156;20.942;2023-07-31T07:49:13;20.60;65.70
68924;DHT22;55961;52.156;20.942;2023-07-31T07:51:39;20.70;65.10
68924;DHT22;55961;52.156;20.942;2023-07-31T07:54:05;20.80;64.90
68924;DHT22;55961;52.156;20.942;2023-07-31T07:56:33;20.90;65.10
68924;DHT22;55961;52.156;20.942;2023-07-31T07:58:59;21.00;65.50
68924;DHT22;55961;52.156;20.942;2023-07-31T08:01:25;21.10;64.90
68924;DHT22;55961;52.156;20.942;2023-07-31T08:03:51;21.20;65.20
68924;DHT22;55961;52.156;20.942;2023-07-31T08:06:17;21.30;63.90
68924;DHT22;55961;52.156;20.942;2023-07-31T08:08:43;21.40;63.70
68924;DHT22;55961;52.156;20.942;2023-07-31T08:11:08;21.50;62.80
68924;DHT22;55961;52.156;20.942;2023-07-31T08:13:34;21.60;62.90
68924;DHT22;55961;52.156;20.942;2023-07-31T08:16:03;21.70;61.90
68924;DHT22;55961;52.156;20.942;2023-07-31T08:18:31;21.80;61.60
68924;DHT22;55961;52.156;20.942;2023-07-31T08:20:57;21.80;60.80
68924;DHT22;55961;52.156;20.942;2023-07-31T08:23:23;21.90;60.40
68924;DHT22;55961;52.156;20.942;2023-07-31T08:25:49;22.00;60.30
68924;DHT22;55961;52.156;20.942;2023-07-31T08:28:16;22.10;59.20
68924;DHT22;55961;52.156;20.942;2023-07-31T08:30:42;22.20;59.30
68924;DHT22;55961;52.156;20.942;2023-07-31T08:33:08;22.30;58.80
68924;DHT22;55961;52.156;20.942;2023-07-31T08:35:34;22.50;59.30
68924;DHT22;55961;52.156;20.942;2023-07-31T08:38:00;22.70;59.50
68924;DHT22;55961;52.156;20.942;2023-07-31T08:40:26;22.90;56.50
68924;DHT22;55961;52.156;20.942;2023-07-31T08:42:55;23.00;56.80
68924;DHT22;55961;52.156;20.942;2023-07-31T08:45:22;23.20;56.40
68924;DHT22;55961;52.156;20.942;2023-07-31T08:47:50;23.30;56.30
68924;DHT22;55961;52.156;20.942;2023-07-31T08:50:18;23.40;55.30
68924;DHT22;55961;52.156;20.942;2023-07-31T08:52:46;23.60;55.80
68924;DHT22;55961;52.156;20.942;2023-07-31T08:55:12;23.70;54.60
68924;DHT22;55961;52.156;20.942;2023-07-31T08:57:39;23.80;54.60
68924;DHT22;55961;52.156;20.942;2023-07-31T09:00:07;23.90;53.70
68924;DHT22;55961;52.156;20.942;2023-07-31T09:02:52;24.00;53.70
68924;DHT22;55961;52.156;20.942;2023-07-31T09:05:19;24.20;53.30
68924;DHT22;55961;52.156;20.942;2023-07-31T09:07:47;24.30;53.10
68924;DHT22;55961;52.156;20.942;2023-07-31T09:10:13;24.40;52.50
68924;DHT22;55961;52.156;20.942;2023-07-31T09:12:39;24.50;53.00
68924;DHT22;55961;52.156;20.942;2023-07-31T09:15:06;24.70;50.80
68924;DHT22;55961;52.156;20.942;2023-07-31T09:17:34;24.80;50.00
68924;DHT22;55961;52.156;20.942;2023-07-31T09:20:15;24.90;50.60
68924;DHT22;55961;52.156;20.942;2023-07-31T09:22:40;25.00;49.60
68924;DHT22;55961;52.156;20.942;2023-07-31T09:25:22;25.00;49.00
68924;DHT22;55961;52.156;20.942;2023-07-31T09:30:15;25.10;50.10
68924;DHT22;55961;52.156;20.942;2023-07-31T09:32:40;25.20;49.90
68924;DHT22;55961;52.156;20.942;2023-07-31T09:35:28;25.30;49.60
68924;DHT22;55961;52.156;20.942;2023-07-31T09:37:57;25.30;49.00
68924;DHT22;55961;52.156;20.942;2023-07-31T09:40:32;25.40;49.30
68924;DHT22;55961;52.156;20.942;2023-07-31T09:43:03;25.40;48.50
68924;DHT22;55961;52.156;20.942;2023-07-31T09:45:30;25.50;49.70
68924;DHT22;55961;52.156;20.942;2023-07-31T09:47:56;25.60;49.00
68924;DHT22;55961;52.156;20.942;2023-07-31T09:50:24;25.70;48.40
68924;DHT22;55961;52.156;20.942;2023-07-31T09:52:51;25.70;48.50
68924;DHT22;55961;52.156;20.942;2023-07-31T09:55:18;25.80;48.40
68924;DHT22;55961;52.156;20.942;2023-07-31T09:57:47;25.80;48.40
68924;DHT22;55961;52.156;20.942;2023-07-31T10:00:15;25.90;48.00
68924;DHT22;55961;52.156;20.942;2023-07-31T10:02:41;26.00;47.50
68924;DHT22;55961;52.156;20.942;2023-07-31T10:05:09;26.10;46.50
68924;DHT22;55961;52.156;20.942;2023-07-31T10:07:38;26.20;47.20
68924;DHT22;55961;52.156;20.942;2023-07-31T10:10:08;26.30;47.00
68924;DHT22;55961;52.156;20.942;2023-07-31T10:12:36;26.40;46.40
68924;DHT22;55961;52.156;20.942;2023-07-31T10:15:03;26.50;45.70
68924;DHT22;55961;52.156;20.942;2023-07-31T10:17:30;26.60;45.00
68924;DHT22;55961;52.156;20.942;2023-07-31T10:20:02;26.60;45.30
68924;DHT22;55961;52.156;20.942;2023-07-31T10:22:30;26.70;45.30
68924;DHT22;55961;52.156;20.942;2023-07-31T10:24:58;26.90;44.30
68924;DHT22;55961;52.156;20.942;2023-07-31T10:27:24;26.90;43.70
68924;DHT22;55961;52.156;20.942;2023-07-31T10:29:52;27.00;42.30
68924;DHT22;55961;52.156;20.942;2023-07-31T10:32:20;27.10;43.70
68924;DHT22;55961;52.156;20.942;2023-07-31T10:34:47;27.20;42.40
68924;DHT22;55961;52.156;20.942;2023-07-31T10:42:27;27.40;40.50
68924;DHT22;55961;52.156;20.942;2023-07-31T10:45:13;27.40;40.50
68924;DHT22;55961;52.156;20.942;2023-07-31T10:47:43;27.50;40.70
68924;DHT22;55961;52.156;20.942;2023-07-31T10:50:15;27.50;41.50
68924;DHT22;55961;52.156;20.942;2023-07-31T10:52:44;27.60;40.90
68924;DHT22;55961;52.156;20.942;2023-07-31T10:55:23;27.60;40.30
68924;DHT22;55961;52.156;20.942;2023-07-31T10:57:49;27.50;40.70
68924;DHT22;55961;52.156;20.942;2023-07-31T11:03:08;27.50;40.00
68924;DHT22;55961;52.156;20.942;2023-07-31T11:08:26;27.40;41.00
68924;DHT22;55961;52.156;20.942;2023-07-31T11:13:31;27.50;40.80
68924;DHT22;55961;52.156;20.942;2023-07-31T11:15:57;27.50;40.40
68924;DHT22;55961;52.156;20.942;2023-07-31T11:18:24;27.60;41.10
68924;DHT22;55961;52.156;20.942;2023-07-31T11:20:50;27.60;41.60
68924;DHT22;55961;52.156;20.942;2023-07-31T11:23:18;27.70;40.70
68924;DHT22;55961;52.156;20.942;2023-07-31T11:25:45;27.80;40.80
68924;DHT22;55961;52.156;20.942;2023-07-31T11:28:13;27.80;40.70
68924;DHT22;55961;52.156;20.942;2023-07-31T11:30:40;27.80;39.90
68924;DHT22;55961;52.156;20.942;2023-07-31T11:33:07;27.80;39.70
68924;DHT22;55961;52.156;20.942;2023-07-31T11:35:35;27.80;39.30
68924;DHT22;55961;52.156;20.942;2023-07-31T11:38:02;27.80;40.30
68924;DHT22;55961;52.156;20.942;2023-07-31T11:40:28;27.80;39.90
68924;DHT22;55961;52.156;20.942;2023-07-31T11:42:58;27.80;39.00
68924;DHT22;55961;52.156;20.942;2023-07-31T11:45:30;27.80;39.70
68924;DHT22;55961;52.156;20.942;2023-07-31T11:47:56;27.70;39.50
68924;DHT22;55961;52.156;20.942;2023-07-31T11:50:23;27.70;40.20
68924;DHT22;55961;52.156;20.942;2023-07-31T11:52:57;27.60;39.90
68924;DHT22;55961;52.156;20.942;2023-07-31T11:55:25;27.50;40.10
68924;DHT22;55961;52.156;20.942;2023-07-31T11:57:52;27.40;40.20
68924;DHT22;55961;52.156;20.942;2023-07-31T12:00:20;27.30;40.40
68924;DHT22;55961;52.156;20.942;2023-07-31T12:02:47;27.10;41.20
68924;DHT22;55961;52.156;20.942;2023-07-31T12:05:13;27.10;41.00
68924;DHT22;55961;52.156;20.942;2023-07-31T12:07:50;27.10;41.70
68924;DHT22;55961;52.156;20.942;2023-07-31T12:10:31;27.00;41.80
68924;DHT22;55961;52.156;20.942;2023-07-31T12:13:00;26.80;41.90
68924;DHT22;55961;52.156;20.942;2023-07-31T12:15:45;26.80;41.50
68924;DHT22;55961;52.156;20.942;2023-07-31T12:18:15;26.80;40.90
68924;DHT22;55961;52.156;20.942;2023-07-31T12:20:55;26.70;41.60
68924;DHT22;55961;52.156;20.942;2023-07-31T12:23:24;26.70;41.30
68924;DHT22;55961;52.156;20.942;2023-07-31T12:26:04;26.60;41.40
68924;DHT22;55961;52.156;20.942;2023-07-31T12:28:30;26.60;41.50
68924;DHT22;55961;52.156;20.942;2023-07-31T12:31:01;26.50;41.60
68924;DHT22;55961;52.156;20.942;2023-07-31T12:33:38;26.40;41.50
68924;DHT22;55961;52.156;20.942;2023-07-31T12:36:12;26.40;41.80
68924;DHT22;55961;52.156;20.942;2023-07-31T12:38:38;26.40;40.50
68924;DHT22;55961;52.156;20.942;2023-07-31T12:41:04;26.30;41.10
68924;DHT22;55961;52.156;20.942;2023-07-31T12:43:36;26.20;40.90
68924;DHT22;55961;52.156;20.942;2023-07-31T12:46:03;26.10;40.70
68924;DHT22;55961;52.156;20.942;2023-07-31T12:48:29;26.00;40.30
68924;DHT22;55961;52.156;20.942;2023-07-31T12:50:55;26.00;41.10
68924;DHT22;55961;52.156;20.942;2023-07-31T12:53:21;25.90;41.10
68924;DHT22;55961;52.156;20.942;2023-07-31T12:55:47;25.90;41.60
68924;DHT22;55961;52.156;20.942;2023-07-31T12:58:13;25.90;41.80
68924;DHT22;55961;52.156;20.942;2023-07-31T13:00:39;25.90;41.50
68924;DHT22;55961;52.156;20.942;2023-07-31T13:03:05;25.90;41.20
68924;DHT22;55961;52.156;20.942;2023-07-31T13:05:31;25.90;40.90
68924;DHT22;55961;52.156;20.942;2023-07-31T13:07:57;25.90;40.50
68924;DHT22;55961;52.156;20.942;2023-07-31T13:10:23;25.90;41.30
68924;DHT22;55961;52.156;20.942;2023-07-31T13:12:50;25.90;41.30
68924;DHT22;55961;52.156;20.942;2023-07-31T13:15:16;26.00;41.00
68924;DHT22;55961;52.156;20.942;2023-07-31T13:17:42;25.90;41.30
68924;DHT22;55961;52.156;20.942;2023-07-31T13:20:08;26.00;41.00
68924;DHT22;55961;52.156;20.942;2023-07-31T13:22:34;26.10;41.20
68924;DHT22;55961;52.156;20.942;2023-07-31T13:25:00;26.20;41.70
68924;DHT22;55961;52.156;20.942;2023-07-31T13:27:26;26.30;41.00
68924;DHT22;55961;52.156;20.942;2023-07-31T13:29:52;26.40;40.80
68924;DHT22;55961;52.156;20.942;2023-07-31T13:32:19;26.50;40.50
68924;DHT22;55961;52.156;20.942;2023-07-31T13:34:47;26.60;40.40
68924;DHT22;55961;52.156;20.942;2023-07-31T13:37:13;26.60;40.60
68924;DHT22;55961;52.156;20.942;2023-07-31T13:39:40;26.70;40.00
68924;DHT22;55961;52.156;20.942;2023-07-31T13:42:07;26.70;40.10
68924;DHT22;55961;52.156;20.942;2023-07-31T13:44:34;26.70;40.30
68924;DHT22;55961;52.156;20.942;2023-07-31T13:47:00;26.70;39.90
68924;DHT22;55961;52.156;20.942;2023-07-31T13:49:27;26.70;40.30
68924;DHT22;55961;52.156;20.942;2023-07-31T13:51:53;26.70;40.70
68924;DHT22;55961;52.156;20.942;2023-07-31T13:54:19;26.80;40.20
68924;DHT22;55961;52.156;20.942;2023-07-31T13:56:45;26.90;39.90
68924;DHT22;55961;52.156;20.942;2023-07-31T13:59:11;27.00;39.50
68924;DHT22;55961;52.156;20.942;2023-07-31T14:01:37;27.00;39.30
68924;DHT22;55961;52.156;20.942;2023-07-31T14:04:03;27.00;40.10
68924;DHT22;55961;52.156;20.942;2023-07-31T14:06:29;27.00;39.40
68924;DHT22;55961;52.156;20.942;2023-07-31T14:08:55;26.90;39.90
68924;DHT22;55961;52.156;20.942;2023-07-31T14:11:22;26.90;39.50
68924;DHT22;55961;52.156;20.942;2023-07-31T14:13:50;26.70;40.00
68924;DHT22;55961;52.156;20.942;2023-07-31T14:16:16;26.70;40.30
68924;DHT22;55961;52.156;20.942;2023-07-31T14:18:43;26.60;40.40
68924;DHT22;55961;52.156;20.942;2023-07-31T14:21:11;26.60;41.00
68924;DHT22;55961;52.156;20.942;2023-07-31T14:23:37;26.50;40.30
68924;DHT22;55961;52.156;20.942;2023-07-31T14:26:03;26.50;40.70
68924;DHT22;55961;52.156;20.942;2023-07-31T14:28:29;26.50;41.50
68924;DHT22;55961;52.156;20.942;2023-07-31T14:30:55;26.50;40.40
68924;DHT22;55961;52.156;20.942;2023-07-31T14:33:21;26.50;41.20
68924;DHT22;55961;52.156;20.942;2023-07-31T14:35:47;26.40;41.20
68924;DHT22;55961;52.156;20.942;2023-07-31T14:38:13;26.40;41.50
68924;DHT22;55961;52.156;20.942;2023-07-31T14:40:39;26.40;41.80
68924;DHT22;55961;52.156;20.942;2023-07-31T14:43:05;26.40;41.90
68924;DHT22;55961;52.156;20.942;2023-07-31T14:45:31;26.50;41.00
68924;DHT22;55961;52.156;20.942;2023-07-31T14:47:57;26.50;40.40
68924;DHT22;55961;52.156;20.942;2023-07-31T14:50:23;26.50;40.80
68924;DHT22;55961;52.156;20.942;2023-07-31T14:52:50;26.60;42.00
68924;DHT22;55961;52.156;20.942;2023-07-31T14:55:16;26.50;41.80
68924;DHT22;55961;52.156;20.942;2023-07-31T14:57:42;26.50;41.70
68924;DHT22;55961;52.156;20.942;2023-07-31T15:00:08;26.60;42.70
68924;DHT22;55961;52.156;20.942;2023-07-31T15:02:35;26.60;41.90
68924;DHT22;55961;52.156;20.942;2023-07-31T15:05:01;26.50;41.80
68924;DHT22;55961;52.156;20.942;2023-07-31T15:07:27;26.50;41.10
68924;DHT22;55961;52.156;20.942;2023-07-31T15:09:53;26.50;41.10
68924;DHT22;55961;52.156;20.942;2023-07-31T15:12:19;26.40;41.70
68924;DHT22;55961;52.156;20.942;2023-07-31T15:14:45;26.30;42.50
68924;DHT22;55961;52.156;20.942;2023-07-31T15:17:11;26.20;42.80
68924;DHT22;55961;52.156;20.942;2023-07-31T15:19:37;26.20;42.80
68924;DHT22;55961;52.156;20.942;2023-07-31T15:22:03;26.10;43.40
68924;DHT22;55961;52.156;20.942;2023-07-31T15:24:29;26.20;42.90
68924;DHT22;55961;52.156;20.942;2023-07-31T15:26:55;26.20;43.00
68924;DHT22;55961;52.156;20.942;2023-07-31T15:29:21;26.20;43.10
68924;DHT22;55961;52.156;20.942;2023-07-31T15:31:48;26.20;43.10
68924;DHT22;55961;52.156;20.942;2023-07-31T15:34:14;26.10;42.80
68924;DHT22;55961;52.156;20.942;2023-07-31T15:36:41;26.10;43.30
68924;DHT22;55961;52.156;20.942;2023-07-31T15:39:07;26.10;43.50